sensor_id;sensor_type;location;lat;lon;timestamp;pressure;altitude;pressure_sealevel;temperature;humidity
54592;BME280;40488;48.558;18.150;2023-05-10T00:02:21;99703.41;;;12.79;50.60
54592;BME280;40488;48.558;18.150;2023-05-10T00:04:50;99705.13;;;12.77;50.96
54592;BME280;40488;48.558;18.150;2023-05-10T00:07:19;99701.72;;;12.81;51.04
54592;BME280;40488;48.558;18.150;2023-05-10T00:09:48;99704.28;;;12.76;51.25
54592;BME280;40488;48.558;18.150;2023-05-10T00:12:17;99702.59;;;12.75;51.58
54592;BME280;40488;48.558;18.150;2023-05-10T00:14:47;99696.69;;;12.69;51.73
54592;BME280;40488;48.558;18.150;2023-05-10T00:17:16;99693.28;;;12.67;52.25
54592;BME280;40488;48.558;18.150;2023-05-10T00:19:45;99690.81;;;12.59;53.22
54592;BME280;40488;48.558;18.150;2023-05-10T00:22:14;99690.75;;;12.65;52.90
54592;BME280;40488;48.558;18.150;2023-05-10T00:24:43;99691.56;;;12.69;52.85
54592;BME280;40488;48.558;18.150;2023-05-10T00:27:12;99685.56;;;12.73;53.08
54592;BME280;40488;48.558;18.150;2023-05-10T00:29:41;99681.28;;;12.72;53.32
54592;BME280;40488;48.558;18.150;2023-05-10T00:32:12;99685.59;;;12.68;53.52
54592;BME280;40488;48.558;18.150;2023-05-10T00:34:41;99686.47;;;12.66;53.77
54592;BME280;40488;48.558;18.150;2023-05-10T00:37:11;99686.44;;;12.69;53.78
54592;BME280;40488;48.558;18.150;2023-05-10T00:39:40;99677.88;;;12.70;54.17
54592;BME280;40488;48.558;18.150;2023-05-10T00:42:10;99684.72;;;12.71;54.12
54592;BME280;40488;48.558;18.150;2023-05-10T00:44:40;99674.72;;;12.41;55.03
54592;BME280;40488;48.558;18.150;2023-05-10T00:47:10;99681.81;;;12.12;56.03
54592;BME280;40488;48.558;18.150;2023-05-10T00:49:41;99679.34;;;11.95;56.91
54592;BME280;40488;48.558;18.150;2023-05-10T00:52:10;99682.03;;;11.66;57.45
54592;BME280;40488;48.558;18.150;2023-05-10T00:54:41;99679.56;;;11.51;58.67
54592;BME280;40488;48.558;18.150;2023-05-10T00:57:10;99674.47;;;11.48;58.96
54592;BME280;40488;48.558;18.150;2023-05-10T00:59:39;99676.22;;;11.35;59.25
54592;BME280;40488;48.558;18.150;2023-05-10T01:02:08;99676.22;;;11.35;59.36
54592;BME280;40488;48.558;18.150;2023-05-10T01:04:37;99677.09;;;11.30;59.73
54592;BME280;40488;48.558;18.150;2023-05-10T01:07:08;99663.47;;;11.28;60.19
54592;BME280;40488;48.558;18.150;2023-05-10T01:09:37;99663.47;;;11.28;60.45
54592;BME280;40488;48.558;18.150;2023-05-10T01:12:07;99658.28;;;11.43;59.80
54592;BME280;40488;48.558;18.150;2023-05-10T01:14:36;99654.84;;;11.56;59.44
54592;BME280;40488;48.558;18.150;2023-05-10T01:17:07;99664.16;;;11.71;59.33
54592;BME280;40488;48.558;18.150;2023-05-10T01:19:39;99654.78;;;11.65;59.58
54592;BME280;40488;48.558;18.150;2023-05-10T01:22:27;99654.75;;;11.74;59.07
54592;BME280;40488;48.558;18.150;2023-05-10T01:25:17;99662.41;;;11.76;59.70
54592;BME280;40488;48.558;18.150;2023-05-10T01:28:06;99653.03;;;11.78;58.86
54592;BME280;40488;48.558;18.150;2023-05-10T01:33:38;99649.53;;;11.92;58.88
54592;BME280;40488;48.558;18.150;2023-05-10T01:36:14;99651.34;;;11.72;59.45
54592;BME280;40488;48.558;18.150;2023-05-10T01:38:49;99652.22;;;11.59;59.99
54592;BME280;40488;48.558;18.150;2023-05-10T01:41:27;99649.66;;;11.65;59.55
54592;BME280;40488;48.558;18.150;2023-05-10T01:44:02;99639.34;;;11.83;59.47
54592;BME280;40488;48.558;18.150;2023-05-10T01:46:35;99641.84;;;11.91;58.76
54592;BME280;40488;48.558;18.150;2023-05-10T01:49:10;99639.41;;;11.74;59.06
54592;BME280;40488;48.558;18.150;2023-05-10T01:51:45;99627.44;;;11.82;58.90
54592;BME280;40488;48.558;18.150;2023-05-10T01:54:18;99641.00;;;11.93;58.80
54592;BME280;40488;48.558;18.150;2023-05-10T01:56:52;99636.69;;;12.01;58.23
54592;BME280;40488;48.558;18.150;2023-05-10T01:59:28;99639.16;;;12.10;57.99
54592;BME280;40488;48.558;18.150;2023-05-10T02:01:59;99627.19;;;12.14;57.95
54592;BME280;40488;48.558;18.150;2023-05-10T02:04:32;99633.97;;;12.17;57.84
54592;BME280;40488;48.558;18.150;2023-05-10T02:07:02;99633.97;;;12.17;57.88
54592;BME280;40488;48.558;18.150;2023-05-10T02:09:32;99628.03;;;12.15;57.70
54592;BME280;40488;48.558;18.150;2023-05-10T02:12:04;99642.53;;;12.19;57.73
54592;BME280;40488;48.558;18.150;2023-05-10T02:14:36;99639.97;;;12.19;57.72
54592;BME280;40488;48.558;18.150;2023-05-10T02:17:08;99642.47;;;12.22;57.72
54592;BME280;40488;48.558;18.150;2023-05-10T02:19:41;99642.53;;;12.19;57.65
54592;BME280;40488;48.558;18.150;2023-05-10T02:22:12;99632.31;;;12.16;57.97
54592;BME280;40488;48.558;18.150;2023-05-10T02:24:42;99631.41;;;12.17;58.09
54592;BME280;40488;48.558;18.150;2023-05-10T02:27:14;99630.56;;;12.21;57.99
54592;BME280;40488;48.558;18.150;2023-05-10T02:29:44;99632.28;;;12.19;58.19
54592;BME280;40488;48.558;18.150;2023-05-10T02:32:16;99598.34;;;11.95;58.80
54592;BME280;40488;48.558;18.150;2023-05-10T02:34:49;99631.44;;;12.18;59.22
54592;BME280;40488;48.558;18.150;2023-05-10T02:37:20;99638.25;;;12.18;59.56
54592;BME280;40488;48.558;18.150;2023-05-10T02:39:50;99637.41;;;12.19;60.07
54592;BME280;40488;48.558;18.150;2023-05-10T02:42:25;99632.28;;;12.19;60.36
54592;BME280;40488;48.558;18.150;2023-05-10T02:45:00;99638.22;;;12.21;60.60
54592;BME280;40488;48.558;18.150;2023-05-10T02:47:31;99635.69;;;12.18;60.73
54592;BME280;40488;48.558;18.150;2023-05-10T02:50:02;99640.72;;;12.27;60.66
54592;BME280;40488;48.558;18.150;2023-05-10T02:52:39;99624.53;;;12.25;60.65
54592;BME280;40488;48.558;18.150;2023-05-10T02:55:12;99635.69;;;12.21;60.61
54592;BME280;40488;48.558;18.150;2023-05-10T02:57:50;99631.41;;;12.17;60.62
54592;BME280;40488;48.558;18.150;2023-05-10T03:00:21;99633.13;;;12.18;60.81
54592;BME280;40488;48.558;18.150;2023-05-10T03:02:50;99634.88;;;12.13;60.98
54592;BME280;40488;48.558;18.150;2023-05-10T03:05:21;99630.63;;;12.10;60.99
54592;BME280;40488;48.558;18.150;2023-05-10T03:07:50;99628.09;;;12.08;61.15
54592;BME280;40488;48.558;18.150;2023-05-10T03:10:25;99628.97;;;12.04;60.98
54592;BME280;40488;48.558;18.150;2023-05-10T03:13:10;99630.72;;;11.99;61.44
54592;BME280;40488;48.558;18.150;2023-05-10T03:15:49;99632.41;;;11.97;61.61
54592;BME280;40488;48.558;18.150;2023-05-10T03:18:32;99640.13;;;11.96;61.65
54592;BME280;40488;48.558;18.150;2023-05-10T03:21:07;99640.13;;;11.93;61.83
54592;BME280;40488;48.558;18.150;2023-05-10T03:23:43;99635.88;;;11.90;61.90
54592;BME280;40488;48.558;18.150;2023-05-10T03:26:17;99640.16;;;11.91;62.04
54592;BME280;40488;48.558;18.150;2023-05-10T03:28:51;99637.59;;;11.91;62.28
54592;BME280;40488;48.558;18.150;2023-05-10T03:31:21;99641.00;;;11.90;61.81
54592;BME280;40488;48.558;18.150;2023-05-10T03:33:52;99632.50;;;11.88;62.29
54592;BME280;40488;48.558;18.150;2023-05-10T03:36:27;99630.78;;;11.89;62.60
54592;BME280;40488;48.558;18.150;2023-05-10T03:38:56;99637.59;;;11.91;62.44
54592;BME280;40488;48.558;18.150;2023-05-10T03:41:26;99630.81;;;11.87;62.97
54592;BME280;40488;48.558;18.150;2023-05-10T03:43:55;99638.47;;;11.89;62.90
54592;BME280;40488;48.558;18.150;2023-05-10T03:46:24;99631.66;;;11.83;63.31
54592;BME280;40488;48.558;18.150;2023-05-10T03:48:53;99633.41;;;11.83;63.08
54592;BME280;40488;48.558;18.150;2023-05-10T03:51:22;99629.97;;;11.84;63.54
54592;BME280;40488;48.558;18.150;2023-05-10T03:53:54;99640.19;;;11.87;63.22
54592;BME280;40488;48.558;18.150;2023-05-10T03:56:23;99635.03;;;11.93;63.60
54592;BME280;40488;48.558;18.150;2023-05-10T03:58:52;99634.16;;;11.95;63.63
54592;BME280;40488;48.558;18.150;2023-05-10T04:01:21;99646.91;;;11.98;63.70
54592;BME280;40488;48.558;18.150;2023-05-10T04:03:50;99649.47;;;11.98;63.61
54592;BME280;40488;48.558;18.150;2023-05-10T04:06:19;99647.75;;;12.00;63.57
54592;BME280;40488;48.558;18.150;2023-05-10T04:08:48;99637.53;;;11.97;63.82
54592;BME280;40488;48.558;18.150;2023-05-10T04:11:18;99649.41;;;12.07;63.78
54592;BME280;40488;48.558;18.150;2023-05-10T04:13:49;99652.78;;;12.13;63.85
54592;BME280;40488;48.558;18.150;2023-05-10T04:16:17;99647.63;;;12.19;63.67
54592;BME280;40488;48.558;18.150;2023-05-10T04:18:46;99657.78;;;12.28;63.66
54592;BME280;40488;48.558;18.150;2023-05-10T04:21:15;99648.34;;;12.34;63.68
54592;BME280;40488;48.558;18.150;2023-05-10T04:23:44;99653.44;;;12.39;63.63
54592;BME280;40488;48.558;18.150;2023-05-10T04:26:13;99657.63;;;12.46;63.44
54592;BME280;40488;48.558;18.150;2023-05-10T04:28:43;99659.34;;;12.47;63.37
54592;BME280;40488;48.558;18.150;2023-05-10T04:31:12;99650.81;;;12.45;63.39
54592;BME280;40488;48.558;18.150;2023-05-10T04:33:41;99654.16;;;12.53;63.29
54592;BME280;40488;48.558;18.150;2023-05-10T04:36:11;99663.41;;;12.69;62.82
54592;BME280;40488;48.558;18.150;2023-05-10T04:38:40;99662.41;;;12.82;62.72
54592;BME280;40488;48.558;18.150;2023-05-10T04:41:10;99660.59;;;12.93;62.54
54592;BME280;40488;48.558;18.150;2023-05-10T04:43:39;99663.91;;;13.01;62.27
54592;BME280;40488;48.558;18.150;2023-05-10T04:46:09;99663.88;;;13.04;61.86
54592;BME280;40488;48.558;18.150;2023-05-10T04:48:38;99662.13;;;13.12;61.92
54592;BME280;40488;48.558;18.150;2023-05-10T04:51:07;99668.75;;;13.28;61.41
54592;BME280;40488;48.558;18.150;2023-05-10T04:53:36;99674.63;;;13.38;61.24
54592;BME280;40488;48.558;18.150;2023-05-10T04:56:05;99671.16;;;13.42;61.22
54592;BME280;40488;48.558;18.150;2023-05-10T04:58:36;99671.22;;;13.37;60.96
54592;BME280;40488;48.558;18.150;2023-05-10T05:01:05;99676.38;;;13.34;61.00
54592;BME280;40488;48.558;18.150;2023-05-10T05:03:37;99673.66;;;13.47;61.23
54592;BME280;40488;48.558;18.150;2023-05-10T05:06:06;99674.38;;;13.56;60.96
54592;BME280;40488;48.558;18.150;2023-05-10T05:08:35;99673.41;;;13.66;60.40
54592;BME280;40488;48.558;18.150;2023-05-10T05:11:04;99674.22;;;13.70;60.21
54592;BME280;40488;48.558;18.150;2023-05-10T05:13:33;99664.56;;;13.87;60.16
54592;BME280;40488;48.558;18.150;2023-05-10T05:16:02;99676.38;;;13.97;59.73
54592;BME280;40488;48.558;18.150;2023-05-10T05:18:31;99674.78;;;13.91;59.36
54592;BME280;40488;48.558;18.150;2023-05-10T05:21:02;99667.88;;;13.95;59.35
54592;BME280;40488;48.558;18.150;2023-05-10T05:23:31;99676.25;;;14.06;58.94
54592;BME280;40488;48.558;18.150;2023-05-10T05:25:59;99677.78;;;14.19;58.68
54592;BME280;40488;48.558;18.150;2023-05-10T05:28:28;99675.00;;;14.34;58.20
54592;BME280;40488;48.558;18.150;2023-05-10T05:31:00;99664.63;;;14.42;57.57
54592;BME280;40488;48.558;18.150;2023-05-10T05:33:29;99666.94;;;14.55;57.82
54592;BME280;40488;48.558;18.150;2023-05-10T05:36:00;99672.50;;;14.78;57.38
54592;BME280;40488;48.558;18.150;2023-05-10T05:38:30;99678.56;;;14.76;56.99
54592;BME280;40488;48.558;18.150;2023-05-10T05:40:59;99677.47;;;14.89;56.79
54592;BME280;40488;48.558;18.150;2023-05-10T05:43:28;99683.28;;;14.99;56.89
54592;BME280;40488;48.558;18.150;2023-05-10T05:45:56;99678.88;;;15.05;56.27
54592;BME280;40488;48.558;18.150;2023-05-10T05:48:26;99681.16;;;15.19;55.93
54592;BME280;40488;48.558;18.150;2023-05-10T05:50:55;99671.22;;;15.02;55.80
54592;BME280;40488;48.558;18.150;2023-05-10T05:53:24;99690.72;;;15.14;55.52
54592;BME280;40488;48.558;18.150;2023-05-10T05:55:55;99688.16;;;15.14;55.34
54592;BME280;40488;48.558;18.150;2023-05-10T05:58:25;99689.72;;;15.21;55.09
54592;BME280;40488;48.558;18.150;2023-05-10T06:00:54;99687.91;;;15.26;55.93
54592;BME280;40488;48.558;18.150;2023-05-10T06:03:23;99685.91;;;15.40;55.44
54592;BME280;40488;48.558;18.150;2023-05-10T06:05:52;99690.03;;;15.49;54.80
54592;BME280;40488;48.558;18.150;2023-05-10T06:08:21;99691.84;;;15.45;54.69
54592;BME280;40488;48.558;18.150;2023-05-10T06:10:49;99689.28;;;15.45;54.83
54592;BME280;40488;48.558;18.150;2023-05-10T06:13:20;99691.31;;;15.28;54.63
54592;BME280;40488;48.558;18.150;2023-05-10T06:15:49;99693.94;;;15.25;54.48
54592;BME280;40488;48.558;18.150;2023-05-10T06:18:18;99699.09;;;15.23;54.87
54592;BME280;40488;48.558;18.150;2023-05-10T06:20:47;99699.78;;;15.31;54.55
54592;BME280;40488;48.558;18.150;2023-05-10T06:23:16;99697.72;;;15.50;54.81
54592;BME280;40488;48.558;18.150;2023-05-10T06:25:45;99696.56;;;15.66;54.09
54592;BME280;40488;48.558;18.150;2023-05-10T06:28:14;99695.41;;;15.79;53.84
54592;BME280;40488;48.558;18.150;2023-05-10T06:30:44;99703.81;;;15.87;54.05
54592;BME280;40488;48.558;18.150;2023-05-10T06:33:13;99700.63;;;15.76;54.20
54592;BME280;40488;48.558;18.150;2023-05-10T06:35:43;99701.44;;;15.77;54.28
54592;BME280;40488;48.558;18.150;2023-05-10T06:38:12;99700.75;;;15.70;53.42
54592;BME280;40488;48.558;18.150;2023-05-10T06:40:41;99695.16;;;15.50;53.90
54592;BME280;40488;48.558;18.150;2023-05-10T06:43:10;99699.59;;;15.42;54.25
54592;BME280;40488;48.558;18.150;2023-05-10T06:45:39;99697.94;;;15.38;54.33
54592;BME280;40488;48.558;18.150;2023-05-10T06:48:09;99696.09;;;15.46;54.10
54592;BME280;40488;48.558;18.150;2023-05-10T06:50:38;99692.69;;;15.46;54.85
54592;BME280;40488;48.558;18.150;2023-05-10T06:53:07;99689.13;;;15.51;54.96
54592;BME280;40488;48.558;18.150;2023-05-10T06:55:36;99688.47;;;15.81;53.95
54592;BME280;40488;48.558;18.150;2023-05-10T06:58:04;99688.31;;;15.90;53.36
54592;BME280;40488;48.558;18.150;2023-05-10T07:00:33;99682.78;;;16.07;53.26
54592;BME280;40488;48.558;18.150;2023-05-10T07:03:06;99689.50;;;16.13;53.51
54592;BME280;40488;48.558;18.150;2023-05-10T07:05:36;99685.25;;;16.12;52.78
54592;BME280;40488;48.558;18.150;2023-05-10T07:08:06;99685.19;;;16.13;52.97
54592;BME280;40488;48.558;18.150;2023-05-10T07:10:35;99687.31;;;16.33;52.96
54592;BME280;40488;48.558;18.150;2023-05-10T07:13:03;99699.22;;;16.37;53.06
54592;BME280;40488;48.558;18.150;2023-05-10T07:15:33;99691.28;;;16.46;52.41
54592;BME280;40488;48.558;18.150;2023-05-10T07:18:02;99697.38;;;16.42;52.26
54592;BME280;40488;48.558;18.150;2023-05-10T07:20:33;99691.03;;;16.21;52.48
54592;BME280;40488;48.558;18.150;2023-05-10T07:23:03;99695.38;;;16.18;52.83
54592;BME280;40488;48.558;18.150;2023-05-10T07:25:32;99697.13;;;16.17;53.12
54592;BME280;40488;48.558;18.150;2023-05-10T07:28:01;99698.06;;;16.15;52.67
54592;BME280;40488;48.558;18.150;2023-05-10T07:30:30;99696.28;;;16.17;53.08
54592;BME280;40488;48.558;18.150;2023-05-10T07:32:59;99695.59;;;16.44;52.88
54592;BME280;40488;48.558;18.150;2023-05-10T07:35:27;99700.97;;;16.71;52.58
54592;BME280;40488;48.558;18.150;2023-05-10T07:37:56;99694.84;;;16.77;52.08
54592;BME280;40488;48.558;18.150;2023-05-10T07:40:27;99705.78;;;16.51;52.46
54592;BME280;40488;48.558;18.150;2023-05-10T07:42:56;99688.22;;;16.30;52.43
54592;BME280;40488;48.558;18.150;2023-05-10T07:45:25;99692.88;;;16.51;52.71
54592;BME280;40488;48.558;18.150;2023-05-10T07:47:54;99690.63;;;16.38;52.96
54592;BME280;40488;48.558;18.150;2023-05-10T07:50:22;99693.94;;;16.43;53.03
54592;BME280;40488;48.558;18.150;2023-05-10T07:52:51;99694.31;;;16.63;52.85
54592;BME280;40488;48.558;18.150;2023-05-10T07:55:20;99691.53;;;16.72;52.57
54592;BME280;40488;48.558;18.150;2023-05-10T07:57:50;99690.31;;;16.50;53.00
54592;BME280;40488;48.558;18.150;2023-05-10T08:00:20;99693.94;;;16.43;53.26
54592;BME280;40488;48.558;18.150;2023-05-10T08:02:49;99709.47;;;16.40;52.58
54592;BME280;40488;48.558;18.150;2023-05-10T08:05:18;99696.47;;;16.44;53.03
54592;BME280;40488;48.558;18.150;2023-05-10T08:07:47;99683.13;;;16.64;52.86
54592;BME280;40488;48.558;18.150;2023-05-10T08:10:16;99702.22;;;16.57;54.03
54592;BME280;40488;48.558;18.150;2023-05-10T08:12:44;99700.84;;;16.41;53.11
54592;BME280;40488;48.558;18.150;2023-05-10T08:15:15;99703.63;;;16.32;53.54
54592;BME280;40488;48.558;18.150;2023-05-10T08:17:44;99711.00;;;16.47;53.73
54592;BME280;40488;48.558;18.150;2023-05-10T08:20:12;99712.31;;;16.64;52.77
54592;BME280;40488;48.558;18.150;2023-05-10T08:22:44;99706.81;;;16.78;53.41
54592;BME280;40488;48.558;18.150;2023-05-10T08:25:16;99717.06;;;16.81;52.84
54592;BME280;40488;48.558;18.150;2023-05-10T08:27:45;99710.44;;;16.71;52.82
54592;BME280;40488;48.558;18.150;2023-05-10T08:30:15;99706.81;;;16.78;52.42
54592;BME280;40488;48.558;18.150;2023-05-10T08:32:45;99709.34;;;16.80;53.42
54592;BME280;40488;48.558;18.150;2023-05-10T08:35:14;99720.84;;;17.00;52.90
54592;BME280;40488;48.558;18.150;2023-05-10T08:37:43;99718.97;;;17.07;53.13
54592;BME280;40488;48.558;18.150;2023-05-10T08:40:13;99716.84;;;17.21;52.49
54592;BME280;40488;48.558;18.150;2023-05-10T08:42:47;99716.00;;;17.20;51.74
54592;BME280;40488;48.558;18.150;2023-05-10T08:45:22;99718.81;;;17.43;51.94
54592;BME280;40488;48.558;18.150;2023-05-10T08:47:52;99720.03;;;17.30;52.37
54592;BME280;40488;48.558;18.150;2023-05-10T08:50:22;99718.09;;;17.06;51.84
54592;BME280;40488;48.558;18.150;2023-05-10T08:52:53;99718.75;;;17.14;52.25
54592;BME280;40488;48.558;18.150;2023-05-10T08:55:24;99717.97;;;17.11;51.94
54592;BME280;40488;48.558;18.150;2023-05-10T08:57:53;99706.03;;;17.08;51.71
54592;BME280;40488;48.558;18.150;2023-05-10T09:00:23;99709.84;;;17.26;51.41
54592;BME280;40488;48.558;18.150;2023-05-10T09:02:53;99714.66;;;17.07;52.63
54592;BME280;40488;48.558;18.150;2023-05-10T09:05:22;99719.94;;;17.01;52.81
54592;BME280;40488;48.558;18.150;2023-05-10T09:07:52;99720.50;;;16.80;52.01
54592;BME280;40488;48.558;18.150;2023-05-10T09:10:21;99719.72;;;16.78;52.38
54592;BME280;40488;48.558;18.150;2023-05-10T09:12:50;99717.84;;;16.83;52.28
54592;BME280;40488;48.558;18.150;2023-05-10T09:15:20;99708.41;;;16.82;52.37
54592;BME280;40488;48.558;18.150;2023-05-10T09:17:50;99701.97;;;16.66;52.43
54592;BME280;40488;48.558;18.150;2023-05-10T09:20:20;99707.78;;;17.06;53.31
54592;BME280;40488;48.558;18.150;2023-05-10T09:22:49;99682.13;;;17.32;52.45
54592;BME280;40488;48.558;18.150;2023-05-10T09:25:19;99717.56;;;17.27;51.84
54592;BME280;40488;48.558;18.150;2023-05-10T09:27:50;99709.97;;;17.21;52.10
54592;BME280;40488;48.558;18.150;2023-05-10T09:30:25;99713.00;;;17.35;51.84
54592;BME280;40488;48.558;18.150;2023-05-10T09:32:57;99713.13;;;17.31;51.80
54592;BME280;40488;48.558;18.150;2023-05-10T09:35:28;99707.81;;;17.68;51.37
54592;BME280;40488;48.558;18.150;2023-05-10T09:38:00;99707.47;;;17.80;51.70
54592;BME280;40488;48.558;18.150;2023-05-10T09:40:30;99696.72;;;17.66;51.66
54592;BME280;40488;48.558;18.150;2023-05-10T09:43:00;99701.50;;;17.78;51.68
54592;BME280;40488;48.558;18.150;2023-05-10T09:45:31;99702.31;;;17.80;50.98
54592;BME280;40488;48.558;18.150;2023-05-10T09:48:06;99705.47;;;17.89;51.24
54592;BME280;40488;48.558;18.150;2023-05-10T09:50:35;99697.09;;;18.09;50.52
54592;BME280;40488;48.558;18.150;2023-05-10T09:53:04;99703.78;;;18.16;50.07
54592;BME280;40488;48.558;18.150;2023-05-10T09:55:44;99702.69;;;18.23;49.86
54592;BME280;40488;48.558;18.150;2023-05-10T09:58:13;99706.72;;;18.32;49.40
54592;BME280;40488;48.558;18.150;2023-05-10T10:00:43;99706.78;;;18.30;49.23
54592;BME280;40488;48.558;18.150;2023-05-10T10:03:15;99693.19;;;17.96;50.02
54592;BME280;40488;48.558;18.150;2023-05-10T10:05:46;99696.78;;;17.63;50.54
54592;BME280;40488;48.558;18.150;2023-05-10T10:08:15;99696.00;;;17.61;51.29
54592;BME280;40488;48.558;18.150;2023-05-10T10:10:46;99693.66;;;17.52;51.01
54592;BME280;40488;48.558;18.150;2023-05-10T10:13:18;99704.81;;;17.54;51.53
54592;BME280;40488;48.558;18.150;2023-05-10T10:15:47;99678.38;;;17.44;51.32
54592;BME280;40488;48.558;18.150;2023-05-10T10:18:20;99691.91;;;17.52;50.73
54592;BME280;40488;48.558;18.150;2023-05-10T10:20:55;99691.22;;;17.46;51.38
54592;BME280;40488;48.558;18.150;2023-05-10T10:23:25;99685.91;;;17.52;51.31
54592;BME280;40488;48.558;18.150;2023-05-10T10:25:54;99684.41;;;17.74;51.18
54592;BME280;40488;48.558;18.150;2023-05-10T10:28:25;99689.13;;;17.60;49.99
54592;BME280;40488;48.558;18.150;2023-05-10T10:31:00;99694.28;;;17.60;50.65
54592;BME280;40488;48.558;18.150;2023-05-10T10:33:43;99678.72;;;17.63;50.52
54592;BME280;40488;48.558;18.150;2023-05-10T10:36:17;99693.00;;;17.74;50.03
54592;BME280;40488;48.558;18.150;2023-05-10T10:38:58;99692.50;;;17.62;49.97
54592;BME280;40488;48.558;18.150;2023-05-10T10:41:31;99671.28;;;17.52;49.72
54592;BME280;40488;48.558;18.150;2023-05-10T10:47:04;99676.09;;;18.47;49.75
54592;BME280;40488;48.558;18.150;2023-05-10T10:49:49;99694.66;;;18.58;49.68
54592;BME280;40488;48.558;18.150;2023-05-10T10:52:24;99678.94;;;18.38;49.47
54592;BME280;40488;48.558;18.150;2023-05-10T10:55:01;99682.75;;;18.54;49.65
54592;BME280;40488;48.558;18.150;2023-05-10T10:57:33;99684.53;;;18.79;49.08
54592;BME280;40488;48.558;18.150;2023-05-10T11:00:26;99677.38;;;19.10;48.48
54592;BME280;40488;48.558;18.150;2023-05-10T11:02:59;99676.72;;;19.03;48.36
54592;BME280;40488;48.558;18.150;2023-05-10T11:05:38;99675.00;;;18.79;48.24
54592;BME280;40488;48.558;18.150;2023-05-10T11:08:15;99668.72;;;18.61;48.67
54592;BME280;40488;48.558;18.150;2023-05-10T11:10:54;99668.81;;;18.58;47.73
54592;BME280;40488;48.558;18.150;2023-05-10T11:13:32;99674.84;;;18.59;47.11
54592;BME280;40488;48.558;18.150;2023-05-10T11:16:19;99669.00;;;18.52;47.16
54592;BME280;40488;48.558;18.150;2023-05-10T11:18:58;99668.72;;;18.61;48.36
54592;BME280;40488;48.558;18.150;2023-05-10T11:21:31;99667.75;;;19.13;48.16
54592;BME280;40488;48.558;18.150;2023-05-10T11:24:01;99665.84;;;19.43;46.76
54592;BME280;40488;48.558;18.150;2023-05-10T11:26:34;99665.47;;;19.29;46.39
54592;BME280;40488;48.558;18.150;2023-05-10T11:29:04;99662.72;;;18.86;47.08
54592;BME280;40488;48.558;18.150;2023-05-10T11:31:34;99655.66;;;18.91;47.31
54592;BME280;40488;48.558;18.150;2023-05-10T11:34:03;99660.81;;;18.91;47.15
54592;BME280;40488;48.558;18.150;2023-05-10T11:36:35;99655.56;;;18.67;47.19
54592;BME280;40488;48.558;18.150;2023-05-10T11:39:04;99657.47;;;19.12;47.53
54592;BME280;40488;48.558;18.150;2023-05-10T11:41:34;99662.81;;;19.07;47.52
54592;BME280;40488;48.558;18.150;2023-05-10T11:44:02;99657.19;;;19.19;47.64
54592;BME280;40488;48.558;18.150;2023-05-10T11:46:31;99656.22;;;19.47;47.13
54592;BME280;40488;48.558;18.150;2023-05-10T11:49:01;99646.84;;;19.66;47.01
54592;BME280;40488;48.558;18.150;2023-05-10T11:51:35;99644.72;;;19.77;46.80
54592;BME280;40488;48.558;18.150;2023-05-10T11:54:06;99632.25;;;19.86;46.18
54592;BME280;40488;48.558;18.150;2023-05-10T11:56:36;99631.31;;;19.87;46.50
54592;BME280;40488;48.558;18.150;2023-05-10T11:59:05;99634.81;;;19.65;45.41
54592;BME280;40488;48.558;18.150;2023-05-10T12:01:36;99625.31;;;19.19;45.51
54592;BME280;40488;48.558;18.150;2023-05-10T12:04:05;99630.75;;;19.34;46.01
54592;BME280;40488;48.558;18.150;2023-05-10T12:06:39;99634.94;;;19.83;45.81
54592;BME280;40488;48.558;18.150;2023-05-10T12:09:09;99636.50;;;19.87;45.58
54592;BME280;40488;48.558;18.150;2023-05-10T12:11:39;99627.78;;;19.45;45.97
54592;BME280;40488;48.558;18.150;2023-05-10T12:14:10;99630.91;;;19.07;46.74
54592;BME280;40488;48.558;18.150;2023-05-10T12:16:39;99639.31;;;18.89;46.59
54592;BME280;40488;48.558;18.150;2023-05-10T12:19:08;99629.06;;;19.33;46.01
54592;BME280;40488;48.558;18.150;2023-05-10T12:21:39;99622.25;;;19.54;45.28
54592;BME280;40488;48.558;18.150;2023-05-10T12:24:08;99619.47;;;19.37;45.66
54592;BME280;40488;48.558;18.150;2023-05-10T12:26:37;99630.03;;;19.31;45.66
54592;BME280;40488;48.558;18.150;2023-05-10T12:29:17;99622.25;;;19.08;45.78
54592;BME280;40488;48.558;18.150;2023-05-10T12:31:54;99617.16;;;18.82;46.34
54592;BME280;40488;48.558;18.150;2023-05-10T12:34:30;99624.03;;;19.06;46.47
54592;BME280;40488;48.558;18.150;2023-05-10T12:37:00;99614.38;;;19.11;46.24
54592;BME280;40488;48.558;18.150;2023-05-10T12:39:41;99617.66;;;19.39;45.59
54592;BME280;40488;48.558;18.150;2023-05-10T12:42:11;99611.00;;;19.32;45.27
54592;BME280;40488;48.558;18.150;2023-05-10T12:44:40;99612.94;;;19.50;44.80
54592;BME280;40488;48.558;18.150;2023-05-10T12:47:09;99606.63;;;19.57;44.57
54592;BME280;40488;48.558;18.150;2023-05-10T12:49:38;99600.22;;;19.44;44.74
54592;BME280;40488;48.558;18.150;2023-05-10T12:52:08;99586.47;;;19.42;44.90
54592;BME280;40488;48.558;18.150;2023-05-10T12:54:37;99593.97;;;19.71;45.03
54592;BME280;40488;48.558;18.150;2023-05-10T12:57:06;99593.50;;;19.83;44.16
54592;BME280;40488;48.558;18.150;2023-05-10T12:59:34;99589.63;;;19.93;43.43
54592;BME280;40488;48.558;18.150;2023-05-10T13:02:04;99585.41;;;20.13;43.91
54592;BME280;40488;48.558;18.150;2023-05-10T13:04:33;99580.91;;;20.38;43.38
54592;BME280;40488;48.558;18.150;2023-05-10T13:07:02;99579.81;;;20.43;42.60
54592;BME280;40488;48.558;18.150;2023-05-10T13:09:32;99583.50;;;20.58;42.58
54592;BME280;40488;48.558;18.150;2023-05-10T13:12:01;99571.69;;;20.51;42.26
54592;BME280;40488;48.558;18.150;2023-05-10T13:14:30;99576.72;;;20.54;42.48
54592;BME280;40488;48.558;18.150;2023-05-10T13:16:58;99571.69;;;20.51;42.95